createdAt,value
2023-01-18T00:04:43.252Z,10.80
2023-01-18T00:09:35.306Z,12.38
2023-01-18T00:14:25.849Z,12.73
2023-01-18T00:19:19.052Z,13.90
2023-01-18T00:24:12.319Z,11.63
2023-01-18T00:29:05.895Z,13.52
2023-01-18T00:34:00.527Z,15.05
2023-01-18T00:39:01.984Z,14.60
2023-01-18T00:43:53.617Z,15.23
2023-01-18T00:48:48.649Z,12.10
2023-01-18T00:53:41.490Z,11.40
2023-01-18T00:58:35.274Z,14.02
2023-01-18T01:03:25.769Z,12.25
2023-01-18T01:08:21.126Z,16.45
2023-01-18T01:13:26.868Z,13.30
2023-01-18T01:18:35.873Z,14.88
2023-01-18T01:23:41.780Z,16.38
2023-01-18T01:28:35.353Z,14.18
2023-01-18T01:33:27.928Z,12.45
2023-01-18T01:38:18.926Z,13.80
2023-01-18T01:43:17.772Z,13.80
2023-01-18T01:48:11.778Z,15.30
2023-01-18T01:53:07.415Z,14.48
2023-01-18T01:58:04.556Z,13.13
2023-01-18T02:02:59.991Z,12.30
2023-01-18T02:07:52.850Z,12.52
2023-01-18T02:12:50.363Z,8.77
2023-01-18T02:18:08.698Z,13.15
2023-01-18T02:23:35.673Z,12.48
2023-01-18T02:28:38.761Z,12.82
2023-01-18T02:33:37.025Z,13.60
2023-01-18T02:38:34.037Z,13.70
2023-01-18T02:43:42.845Z,13.27
2023-01-18T02:48:39.323Z,10.50
2023-01-18T02:53:31.350Z,9.10
2023-01-18T02:58:26.172Z,9.10
2023-01-18T03:03:23.186Z,12.65
2023-01-18T03:08:22.458Z,9.32
2023-01-18T03:13:20.756Z,10.10
2023-01-18T03:18:19.268Z,9.93
2023-01-18T03:23:32.153Z,11.20
2023-01-18T03:28:39.261Z,9.82
2023-01-18T03:33:49.502Z,11.73
2023-01-18T03:38:45.911Z,10.57
2023-01-18T03:43:41.280Z,9.35
2023-01-18T03:48:43.847Z,10.65
2023-01-18T03:53:54.778Z,10.13
2023-01-18T03:58:55.829Z,15.32
2023-01-18T04:03:48.210Z,14.73
2023-01-18T04:08:45.145Z,16.17
2023-01-18T04:13:39.717Z,14.68
2023-01-18T04:18:32.775Z,13.73
2023-01-18T04:23:24.406Z,14.95
2023-01-18T04:28:14.419Z,17.40
2023-01-18T04:33:04.770Z,15.48
2023-01-18T04:38:01.959Z,12.20
2023-01-18T04:42:58.765Z,15.15
2023-01-18T04:47:52.795Z,15.38
2023-01-18T04:52:50.079Z,14.57
2023-01-18T04:57:47.807Z,16.60
2023-01-18T05:02:41.391Z,13.95
2023-01-18T05:07:34.383Z,14.68
2023-01-18T05:12:24.214Z,16.33
2023-01-18T05:17:16.904Z,15.93
2023-01-18T05:22:09.316Z,15.40
2023-01-18T05:27:01.391Z,13.23
2023-01-18T05:31:55.042Z,16.13
2023-01-18T05:36:52.185Z,13.98
2023-01-18T05:41:45.498Z,13.88
2023-01-18T05:46:36.940Z,16.10
2023-01-18T05:51:34.850Z,15.77
2023-01-18T05:56:46.388Z,13.18
2023-01-18T06:01:36.506Z,16.13
2023-01-18T06:06:40.488Z,16.58
2023-01-18T06:11:35.887Z,21.77
2023-01-18T06:16:56.604Z,22.80
2023-01-18T06:21:48.792Z,19.17
2023-01-18T06:26:38.662Z,26.60
2023-01-18T06:31:29.826Z,24.48
2023-01-18T06:36:31.973Z,26.42
2023-01-18T06:41:34.058Z,22.10
2023-01-18T06:46:29.684Z,17.48
2023-01-18T06:51:26.875Z,18.73
2023-01-18T06:56:26.377Z,26.42
2023-01-18T07:01:21.885Z,24.75
2023-01-18T07:06:11.926Z,17.48
2023-01-18T07:11:15.499Z,21.40
2023-01-18T07:16:07.865Z,15.82
2023-01-18T07:21:14.347Z,21.85
2023-01-18T07:26:20.870Z,22.90
2023-01-18T07:31:12.344Z,22.77
2023-01-18T07:36:02.257Z,17.48
2023-01-18T07:40:52.675Z,21.13
2023-01-18T07:45:46.372Z,20.92
2023-01-18T07:50:44.377Z,17.98
2023-01-18T07:55:49.355Z,20.38
2023-01-18T08:00:41.822Z,16.65
2023-01-18T08:10:41.335Z,16.85
2023-01-18T08:15:42.052Z,17.08
2023-01-18T08:20:47.106Z,19.60
2023-01-18T08:25:41.878Z,15.85
2023-01-18T08:30:36.905Z,20.50
2023-01-18T08:35:33.815Z,17.20
2023-01-18T08:40:33.955Z,16.48
2023-01-18T08:45:27.080Z,13.18
2023-01-18T08:50:20.957Z,16.33
2023-01-18T08:55:18.697Z,16.85
2023-01-18T09:00:30.368Z,18.85
2023-01-18T09:05:25.223Z,14.52
2023-01-18T09:15:15.190Z,17.85
2023-01-18T09:20:09.724Z,19.65
2023-01-18T09:25:00.892Z,19.75
2023-01-18T09:29:58.954Z,14.05
2023-01-18T09:34:53.235Z,12.13
2023-01-18T09:39:51.929Z,15.85
2023-01-18T09:44:48.729Z,12.85
2023-01-18T09:49:55.514Z,12.88
2023-01-18T09:54:55.823Z,12.93
2023-01-18T10:19:35.531Z,9.32
2023-01-18T10:24:38.040Z,10.25
